< < Back
Terminal Aerodrome Forecast


Current Version              Previous Versions:   1  2  3  4  5  6  7  8  9  

Terminal Aerodrome Forecast

151
FTUS42 KGSP 172330
TAFGSP
TAF
KGSP 172330Z 1800/1824 19004KT P6SM -SHRA OVC015
     FM180600 00000KT 4SM BR VCSH BKN008
     FM181300 03002KT 6SM BR BKN008
     FM181500 04005KT P6SM BKN025
     FM181900 07005KT P6SM BKN040=

Latest METAR

880
SAUS70 KWBC 180500
MTRGSP
METAR KGSP 180453Z AUTO 00000KT 5SM -RA BR OVC110 17/17 A3002 RMK AO2
SLP158 P0002 T01670167 402170122


USA.gov is the U.S. government's official web portal to all federal, state and local government web resources and services.